MiSS Niz — WDF2697 — position and weather

sailwx.info

Track history (hours):
 
Tides and Currents Weather Stations Pressure Air Temp Water Temp Dewpoint Dewpoint Depression Visibility Wind Speed Wind Dir Waves Ship Positions

MiSS Niz

Owner: Marquette Transportation Company Offshore LLC, Jefferson, LA. More information available from US FCC via Universal Licensing System and Coast Guard Vessel Documentation Center.

Last reported at 2018-Mar-21 01:21 UTC. Time now 2018-May-27 08:10 UTC.
Position N 29°34' W 090°33'.
Warning: this ship's position is months out of date.

Length 22 m; draft 2.5 m.

Type: Tug. MMSI: 367430850.

Date/timePositionNaut miles runAvg speedWind from/ knotsBaromVisibWave heightAir tempDewpointWater temp
2018-Mar-21 01:21N 29°34' W 090°33'3 7.5
2018-Mar-21 00:55N 29°35' W 090°37'3 8.2
2018-Mar-21 00:30N 29°36' W 090°40'2 4.3
2018-Mar-21 00:00N 29°35' W 090°43'2 3.8
2018-Mar-20 23:30N 29°34' W 090°44'4 7.7
2018-Mar-20 23:00N 29°32' W 090°48'  
2018-Mar-17 03:54N 29°36' W 090°58'7 8.2
2018-Mar-17 03:06N 29°32' W 090°52'1 8.4
2018-Mar-17 03:00N 29°32' W 090°51'4 8.4
2018-Mar-17 02:30N 29°32' W 090°46'3 6.5
2018-Mar-17 02:00N 29°34' W 090°43'3 5.3
2018-Mar-17 01:30N 29°37' W 090°43'3 6.5
2018-Mar-17 01:00N 29°36' W 090°39'4 7.1
2018-Mar-17 00:30N 29°35' W 090°35'4 8.2
2018-Mar-17 00:00N 29°34' W 090°30'  
Track history (hours):
 
Tides and Currents Weather Stations Pressure Air Temp Water Temp Dewpoint Dewpoint Depression Visibility Wind Speed Wind Dir Waves Ship Positions

MiSS Niz

Owner: Marquette Transportation Company Offshore LLC, Jefferson, LA. More information available from US FCC via Universal Licensing System and Coast Guard Vessel Documentation Center.

Last reported at 2018-Mar-21 01:21 UTC. Time now 2018-May-27 08:10 UTC.
Position N 29°34' W 090°33'.
Warning: this ship's position is months out of date.

Length 22 m; draft 2.5 m.

Type: Tug. MMSI: 367430850.

Date/timePositionNaut miles runAvg speedWind from/ knotsBaromVisibWave heightAir tempDewpointWater temp
2018-Mar-21 01:21N 29°34' W 090°33'3 7.5
2018-Mar-21 00:55N 29°35' W 090°37'3 8.2
2018-Mar-21 00:30N 29°36' W 090°40'2 4.3
2018-Mar-21 00:00N 29°35' W 090°43'2 3.8
2018-Mar-20 23:30N 29°34' W 090°44'4 7.7
2018-Mar-20 23:00N 29°32' W 090°48'  
2018-Mar-17 03:54N 29°36' W 090°58'7 8.2
2018-Mar-17 03:06N 29°32' W 090°52'1 8.4
2018-Mar-17 03:00N 29°32' W 090°51'4 8.4
2018-Mar-17 02:30N 29°32' W 090°46'3 6.5
2018-Mar-17 02:00N 29°34' W 090°43'3 5.3
2018-Mar-17 01:30N 29°37' W 090°43'3 6.5
2018-Mar-17 01:00N 29°36' W 090°39'4 7.1
2018-Mar-17 00:30N 29°35' W 090°35'4 8.2
2018-Mar-17 00:00N 29°34' W 090°30'  

Dump ship's entire track history